sensor_id;sensor_type;location;lat;lon;timestamp;pressure;altitude;pressure_sealevel;temperature;humidity
27840;BME280;15207;42.182;24.308;2022-12-10T00:01:26;98802.75;;;8.06;100.00
27840;BME280;15207;42.182;24.308;2022-12-10T00:03:52;98816.31;;;8.03;100.00
27840;BME280;15207;42.182;24.308;2022-12-10T00:06:21;98811.19;;;8.00;100.00
27840;BME280;15207;42.182;24.308;2022-12-10T00:08:47;98810.13;;;8.02;100.00
27840;BME280;15207;42.182;24.308;2022-12-10T00:11:15;98807.34;;;8.04;100.00
27840;BME280;15207;42.182;24.308;2022-12-10T00:13:42;98803.09;;;8.01;100.00
27840;BME280;15207;42.182;24.308;2022-12-10T00:16:10;98793.91;;;8.17;100.00
27840;BME280;15207;42.182;24.308;2022-12-10T00:18:37;98798.28;;;8.18;100.00
27840;BME280;15207;42.182;24.308;2022-12-10T00:21:04;98794.88;;;8.16;100.00
27840;BME280;15207;42.182;24.308;2022-12-10T00:23:30;98792.44;;;8.13;100.00
27840;BME280;15207;42.182;24.308;2022-12-10T00:26:05;98789.56;;;8.16;100.00
27840;BME280;15207;42.182;24.308;2022-12-10T00:28:31;98799.84;;;8.20;100.00
27840;BME280;15207;42.182;24.308;2022-12-10T00:31:09;98795.00;;;8.14;100.00
27840;BME280;15207;42.182;24.308;2022-12-10T00:33:35;98798.38;;;8.05;100.00
27840;BME280;15207;42.182;24.308;2022-12-10T00:36:08;98799.94;;;8.07;100.00
27840;BME280;15207;42.182;24.308;2022-12-10T00:38:34;98804.34;;;8.09;100.00
27840;BME280;15207;42.182;24.308;2022-12-10T00:41:00;98810.88;;;8.04;100.00
27840;BME280;15207;42.182;24.308;2022-12-10T00:43:26;98804.06;;;8.00;100.00
27840;BME280;15207;42.182;24.308;2022-12-10T00:45:52;98798.84;;;7.99;100.00
27840;BME280;15207;42.182;24.308;2022-12-10T00:48:18;98796.41;;;7.96;100.00
27840;BME280;15207;42.182;24.308;2022-12-10T00:50:43;98788.53;;;7.94;100.00
27840;BME280;15207;42.182;24.308;2022-12-10T00:53:09;98782.34;;;7.93;100.00
27840;BME280;15207;42.182;24.308;2022-12-10T00:55:34;98785.72;;;7.96;100.00
27840;BME280;15207;42.182;24.308;2022-12-10T00:58:00;98785.50;;;7.99;100.00
27840;BME280;15207;42.182;24.308;2022-12-10T01:00:26;98782.38;;;8.05;100.00
27840;BME280;15207;42.182;24.308;2022-12-10T01:02:51;98777.19;;;8.03;100.00
27840;BME280;15207;42.182;24.308;2022-12-10T01:05:18;98786.13;;;8.02;100.00
27840;BME280;15207;42.182;24.308;2022-12-10T01:07:43;98775.34;;;8.04;100.00
27840;BME280;15207;42.182;24.308;2022-12-10T01:10:09;98775.81;;;7.98;100.00
27840;BME280;15207;42.182;24.308;2022-12-10T01:12:34;98791.44;;;8.02;100.00
27840;BME280;15207;42.182;24.308;2022-12-10T01:15:00;98799.72;;;8.11;100.00
27840;BME280;15207;42.182;24.308;2022-12-10T01:17:26;98789.78;;;8.13;100.00
27840;BME280;15207;42.182;24.308;2022-12-10T01:19:51;98781.16;;;8.09;100.00
27840;BME280;15207;42.182;24.308;2022-12-10T01:22:17;98778.28;;;8.12;100.00
27840;BME280;15207;42.182;24.308;2022-12-10T01:24:42;98784.69;;;8.10;100.00
27840;BME280;15207;42.182;24.308;2022-12-10T01:27:08;98779.00;;;8.14;100.00
27840;BME280;15207;42.182;24.308;2022-12-10T01:29:33;98766.63;;;8.13;100.00
27840;BME280;15207;42.182;24.308;2022-12-10T01:31:59;98760.91;;;8.06;100.00
27840;BME280;15207;42.182;24.308;2022-12-10T01:34:25;98767.34;;;8.15;100.00
27840;BME280;15207;42.182;24.308;2022-12-10T01:36:53;98775.97;;;8.19;100.00
27840;BME280;15207;42.182;24.308;2022-12-10T01:39:20;98765.09;;;8.33;100.00
27840;BME280;15207;42.182;24.308;2022-12-10T01:41:51;98749.09;;;8.33;100.00
27840;BME280;15207;42.182;24.308;2022-12-10T01:46:47;98746.28;;;8.35;100.00
27840;BME280;15207;42.182;24.308;2022-12-10T01:49:20;98748.09;;;8.34;100.00
27840;BME280;15207;42.182;24.308;2022-12-10T01:51:48;98746.91;;;8.39;100.00
27840;BME280;15207;42.182;24.308;2022-12-10T01:54:18;98752.22;;;8.39;100.00
27840;BME280;15207;42.182;24.308;2022-12-10T01:56:46;98738.50;;;8.43;100.00
27840;BME280;15207;42.182;24.308;2022-12-10T01:59:15;98733.06;;;8.45;100.00
27840;BME280;15207;42.182;24.308;2022-12-10T02:04:46;98742.66;;;8.36;100.00
27840;BME280;15207;42.182;24.308;2022-12-10T02:13:28;98721.03;;;8.51;100.00
27840;BME280;15207;42.182;24.308;2022-12-10T02:18:56;98736.81;;;8.42;100.00
27840;BME280;15207;42.182;24.308;2022-12-10T02:21:32;98758.53;;;8.49;100.00
27840;BME280;15207;42.182;24.308;2022-12-10T02:24:02;98741.31;;;8.53;100.00
27840;BME280;15207;42.182;24.308;2022-12-10T02:26:45;98748.59;;;8.63;100.00
27840;BME280;15207;42.182;24.308;2022-12-10T02:29:20;98758.94;;;8.67;100.00
27840;BME280;15207;42.182;24.308;2022-12-10T02:31:53;98753.09;;;8.62;100.00
27840;BME280;15207;42.182;24.308;2022-12-10T02:34:23;98748.13;;;8.69;100.00
27840;BME280;15207;42.182;24.308;2022-12-10T02:36:53;98748.38;;;8.66;100.00
27840;BME280;15207;42.182;24.308;2022-12-10T02:39:24;98747.88;;;8.60;100.00
27840;BME280;15207;42.182;24.308;2022-12-10T02:41:54;98730.28;;;8.58;100.00
27840;BME280;15207;42.182;24.308;2022-12-10T02:44:21;98731.09;;;8.47;100.00
27840;BME280;15207;42.182;24.308;2022-12-10T02:46:50;98738.13;;;8.48;100.00
27840;BME280;15207;42.182;24.308;2022-12-10T02:49:18;98728.81;;;8.42;100.00
27840;BME280;15207;42.182;24.308;2022-12-10T02:51:44;98719.72;;;8.33;100.00
27840;BME280;15207;42.182;24.308;2022-12-10T03:08:14;98710.72;;;8.12;100.00
27840;BME280;15207;42.182;24.308;2022-12-10T03:10:55;98707.69;;;8.05;100.00
27840;BME280;15207;42.182;24.308;2022-12-10T03:16:24;98714.00;;;8.04;100.00
27840;BME280;15207;42.182;24.308;2022-12-10T03:18:54;98711.81;;;7.98;100.00
27840;BME280;15207;42.182;24.308;2022-12-10T03:21:22;98709.28;;;8.07;100.00
27840;BME280;15207;42.182;24.308;2022-12-10T03:23:50;98700.81;;;8.14;100.00
27840;BME280;15207;42.182;24.308;2022-12-10T03:26:17;98700.81;;;8.14;100.00
27840;BME280;15207;42.182;24.308;2022-12-10T03:28:50;98707.34;;;8.10;100.00
27840;BME280;15207;42.182;24.308;2022-12-10T03:31:18;98698.75;;;8.06;100.00
27840;BME280;15207;42.182;24.308;2022-12-10T03:33:45;98693.63;;;8.03;100.00
27840;BME280;15207;42.182;24.308;2022-12-10T03:36:12;98690.47;;;8.09;100.00
27840;BME280;15207;42.182;24.308;2022-12-10T03:38:39;98680.06;;;8.06;100.00
27840;BME280;15207;42.182;24.308;2022-12-10T03:41:05;98689.28;;;8.13;100.00
27840;BME280;15207;42.182;24.308;2022-12-10T03:43:31;98690.97;;;8.14;100.00
27840;BME280;15207;42.182;24.308;2022-12-10T03:45:56;98677.53;;;8.16;100.00
27840;BME280;15207;42.182;24.308;2022-12-10T03:48:22;98679.22;;;8.05;100.00
27840;BME280;15207;42.182;24.308;2022-12-10T03:50:48;98684.19;;;8.22;100.00
27840;BME280;15207;42.182;24.308;2022-12-10T03:53:13;98687.59;;;8.24;100.00
27840;BME280;15207;42.182;24.308;2022-12-10T03:55:39;98686.38;;;8.16;100.00
27840;BME280;15207;42.182;24.308;2022-12-10T03:58:05;98701.41;;;8.17;100.00
27840;BME280;15207;42.182;24.308;2022-12-10T04:00:30;98693.75;;;8.13;100.00
27840;BME280;15207;42.182;24.308;2022-12-10T04:02:55;98694.25;;;8.06;100.00
27840;BME280;15207;42.182;24.308;2022-12-10T04:05:21;98680.19;;;8.16;100.00
27840;BME280;15207;42.182;24.308;2022-12-10T04:07:47;98667.56;;;8.06;100.00
27840;BME280;15207;42.182;24.308;2022-12-10T04:10:12;98668.19;;;8.10;100.00
27840;BME280;15207;42.182;24.308;2022-12-10T04:12:38;98666.25;;;8.12;100.00
27840;BME280;15207;42.182;24.308;2022-12-10T04:15:04;98665.16;;;8.03;100.00
27840;BME280;15207;42.182;24.308;2022-12-10T04:17:48;98672.81;;;7.97;100.00
27840;BME280;15207;42.182;24.308;2022-12-10T04:23:35;98682.94;;;7.80;100.00
27840;BME280;15207;42.182;24.308;2022-12-10T04:33:12;98680.63;;;7.75;100.00
27840;BME280;15207;42.182;24.308;2022-12-10T04:35:38;98686.84;;;7.76;100.00
27840;BME280;15207;42.182;24.308;2022-12-10T04:38:03;98692.38;;;7.73;100.00
27840;BME280;15207;42.182;24.308;2022-12-10T04:40:29;98685.84;;;7.77;100.00
27840;BME280;15207;42.182;24.308;2022-12-10T04:42:54;98680.63;;;7.75;100.00
27840;BME280;15207;42.182;24.308;2022-12-10T04:45:20;98689.13;;;7.80;100.00
27840;BME280;15207;42.182;24.308;2022-12-10T04:47:45;98685.63;;;7.91;100.00
27840;BME280;15207;42.182;24.308;2022-12-10T04:50:10;98686.97;;;7.86;100.00
27840;BME280;15207;42.182;24.308;2022-12-10T04:52:36;98691.53;;;7.72;100.00
27840;BME280;15207;42.182;24.308;2022-12-10T04:55:02;98693.00;;;7.76;100.00
27840;BME280;15207;42.182;24.308;2022-12-10T04:57:27;98697.44;;;7.64;100.00
27840;BME280;15207;42.182;24.308;2022-12-10T04:59:53;98687.66;;;7.65;100.00
27840;BME280;15207;42.182;24.308;2022-12-10T05:02:18;98683.03;;;7.67;100.00
27840;BME280;15207;42.182;24.308;2022-12-10T05:04:43;98684.88;;;7.66;100.00
27840;BME280;15207;42.182;24.308;2022-12-10T05:07:09;98686.78;;;7.64;100.00
27840;BME280;15207;42.182;24.308;2022-12-10T05:09:34;98678.66;;;7.54;100.00
27840;BME280;15207;42.182;24.308;2022-12-10T05:12:00;98682.03;;;7.57;100.00
27840;BME280;15207;42.182;24.308;2022-12-10T05:14:26;98674.81;;;7.59;100.00
27840;BME280;15207;42.182;24.308;2022-12-10T05:16:51;98667.00;;;7.44;100.00
27840;BME280;15207;42.182;24.308;2022-12-10T05:19:17;98676.34;;;7.50;100.00
27840;BME280;15207;42.182;24.308;2022-12-10T05:21:44;98675.13;;;7.54;100.00
27840;BME280;15207;42.182;24.308;2022-12-10T05:24:29;98667.75;;;7.58;100.00
27840;BME280;15207;42.182;24.308;2022-12-10T05:26:56;98663.41;;;7.68;100.00
27840;BME280;15207;42.182;24.308;2022-12-10T05:29:22;98671.44;;;7.79;100.00
27840;BME280;15207;42.182;24.308;2022-12-10T05:31:47;98674.09;;;7.79;100.00
27840;BME280;15207;42.182;24.308;2022-12-10T05:34:13;98671.56;;;7.78;100.00
27840;BME280;15207;42.182;24.308;2022-12-10T05:36:38;98660.19;;;7.76;100.00
27840;BME280;15207;42.182;24.308;2022-12-10T05:39:04;98648.91;;;7.84;100.00
27840;BME280;15207;42.182;24.308;2022-12-10T05:41:33;98652.03;;;7.77;100.00
27840;BME280;15207;42.182;24.308;2022-12-10T05:43:59;98658.22;;;7.78;100.00
27840;BME280;15207;42.182;24.308;2022-12-10T05:46:30;98662.69;;;7.77;100.00
27840;BME280;15207;42.182;24.308;2022-12-10T05:48:57;98657.63;;;7.74;100.00
27840;BME280;15207;42.182;24.308;2022-12-10T05:51:25;98653.84;;;7.65;100.00
27840;BME280;15207;42.182;24.308;2022-12-10T05:53:52;98655.78;;;7.63;100.00
27840;BME280;15207;42.182;24.308;2022-12-10T05:56:20;98654.09;;;7.74;100.00
27840;BME280;15207;42.182;24.308;2022-12-10T05:58:47;98649.63;;;7.86;100.00
27840;BME280;15207;42.182;24.308;2022-12-10T06:01:18;98650.34;;;7.76;100.00
27840;BME280;15207;42.182;24.308;2022-12-10T06:03:44;98664.75;;;7.85;100.00
27840;BME280;15207;42.182;24.308;2022-12-10T06:06:11;98664.06;;;7.83;100.00
27840;BME280;15207;42.182;24.308;2022-12-10T06:08:37;98664.91;;;7.95;100.00
27840;BME280;15207;42.182;24.308;2022-12-10T06:11:05;98656.41;;;7.78;100.00
27840;BME280;15207;42.182;24.308;2022-12-10T06:13:31;98662.34;;;7.82;100.00
27840;BME280;15207;42.182;24.308;2022-12-10T06:18:38;98669.00;;;7.76;100.00
27840;BME280;15207;42.182;24.308;2022-12-10T06:21:05;98674.97;;;7.91;100.00
27840;BME280;15207;42.182;24.308;2022-12-10T06:23:31;98658.00;;;7.81;100.00
27840;BME280;15207;42.182;24.308;2022-12-10T06:25:56;98663.06;;;7.84;100.00
27840;BME280;15207;42.182;24.308;2022-12-10T06:28:22;98655.69;;;7.88;100.00
27840;BME280;15207;42.182;24.308;2022-12-10T06:30:47;98658.22;;;7.89;100.00
27840;BME280;15207;42.182;24.308;2022-12-10T06:33:13;98660.78;;;7.91;100.00
27840;BME280;15207;42.182;24.308;2022-12-10T06:35:38;98669.88;;;7.88;100.00
27840;BME280;15207;42.182;24.308;2022-12-10T06:38:04;98664.78;;;7.97;100.00
27840;BME280;15207;42.182;24.308;2022-12-10T06:40:29;98656.91;;;7.95;100.00
27840;BME280;15207;42.182;24.308;2022-12-10T06:42:55;98660.91;;;7.89;100.00
27840;BME280;15207;42.182;24.308;2022-12-10T06:45:20;98667.94;;;8.13;100.00
27840;BME280;15207;42.182;24.308;2022-12-10T06:47:46;98656.91;;;8.06;100.00
27840;BME280;15207;42.182;24.308;2022-12-10T06:50:11;98679.00;;;8.09;100.00
27840;BME280;15207;42.182;24.308;2022-12-10T06:52:37;98670.72;;;8.12;100.00
27840;BME280;15207;42.182;24.308;2022-12-10T06:55:03;98663.94;;;8.07;100.00
27840;BME280;15207;42.182;24.308;2022-12-10T06:57:29;98662.50;;;8.03;100.00
27840;BME280;15207;42.182;24.308;2022-12-10T06:59:54;98663.00;;;8.09;100.00
27840;BME280;15207;42.182;24.308;2022-12-10T07:02:20;98663.56;;;8.24;100.00
27840;BME280;15207;42.182;24.308;2022-12-10T07:04:45;98661.03;;;8.22;100.00
27840;BME280;15207;42.182;24.308;2022-12-10T07:07:11;98672.56;;;8.23;100.00
27840;BME280;15207;42.182;24.308;2022-12-10T07:09:36;98672.28;;;8.26;100.00
27840;BME280;15207;42.182;24.308;2022-12-10T07:12:03;98667.09;;;8.24;100.00
27840;BME280;15207;42.182;24.308;2022-12-10T07:14:29;98673.63;;;8.31;100.00
27840;BME280;15207;42.182;24.308;2022-12-10T07:16:54;98663.56;;;8.35;100.00
27840;BME280;15207;42.182;24.308;2022-12-10T07:19:20;98670.34;;;8.39;100.00
27840;BME280;15207;42.182;24.308;2022-12-10T07:21:45;98652.50;;;8.51;100.00
27840;BME280;15207;42.182;24.308;2022-12-10T07:24:16;98665.75;;;8.53;100.00
27840;BME280;15207;42.182;24.308;2022-12-10T07:26:43;98666.25;;;8.58;100.00
27840;BME280;15207;42.182;24.308;2022-12-10T07:29:12;98657.38;;;8.69;100.00
27840;BME280;15207;42.182;24.308;2022-12-10T07:31:39;98639.63;;;8.68;100.00
27840;BME280;15207;42.182;24.308;2022-12-10T07:34:04;98645.19;;;8.76;100.00
27840;BME280;15207;42.182;24.308;2022-12-10T07:36:30;98643.13;;;8.80;100.00
27840;BME280;15207;42.182;24.308;2022-12-10T07:38:55;98647.16;;;8.63;100.00
27840;BME280;15207;42.182;24.308;2022-12-10T07:41:22;98644.72;;;8.71;100.00
27840;BME280;15207;42.182;24.308;2022-12-10T07:43:48;98647.53;;;8.69;100.00
27840;BME280;15207;42.182;24.308;2022-12-10T07:46:20;98649.97;;;8.61;100.00
27840;BME280;15207;42.182;24.308;2022-12-10T07:48:47;98654.44;;;8.72;100.00
27840;BME280;15207;42.182;24.308;2022-12-10T07:51:14;98651.59;;;8.85;100.00
27840;BME280;15207;42.182;24.308;2022-12-10T07:53:40;98648.28;;;8.93;100.00
27840;BME280;15207;42.182;24.308;2022-12-10T07:56:06;98657.75;;;8.97;100.00
27840;BME280;15207;42.182;24.308;2022-12-10T07:58:32;98661.22;;;9.09;100.00
27840;BME280;15207;42.182;24.308;2022-12-10T08:00:57;98656.00;;;9.07;100.00
27840;BME280;15207;42.182;24.308;2022-12-10T08:03:23;98658.56;;;9.09;100.00
27840;BME280;15207;42.182;24.308;2022-12-10T08:06:00;98652.63;;;9.05;100.00
27840;BME280;15207;42.182;24.308;2022-12-10T08:08:26;98654.31;;;9.06;100.00
27840;BME280;15207;42.182;24.308;2022-12-10T08:10:51;98651.06;;;9.03;100.00
27840;BME280;15207;42.182;24.308;2022-12-10T08:13:17;98642.78;;;9.06;100.00
27840;BME280;15207;42.182;24.308;2022-12-10T08:15:42;98639.22;;;9.17;100.00
27840;BME280;15207;42.182;24.308;2022-12-10T08:18:08;98629.50;;;9.16;100.00
27840;BME280;15207;42.182;24.308;2022-12-10T08:20:35;98625.63;;;9.20;100.00
27840;BME280;15207;42.182;24.308;2022-12-10T08:23:00;98615.25;;;9.05;100.00
27840;BME280;15207;42.182;24.308;2022-12-10T08:25:26;98610.88;;;9.04;100.00
27840;BME280;15207;42.182;24.308;2022-12-10T08:27:51;98615.59;;;9.00;100.00
27840;BME280;15207;42.182;24.308;2022-12-10T08:30:16;98631.66;;;9.22;100.00
27840;BME280;15207;42.182;24.308;2022-12-10T08:32:42;98626.91;;;9.25;100.00
27840;BME280;15207;42.182;24.308;2022-12-10T08:35:08;98629.19;;;9.30;100.00
27840;BME280;15207;42.182;24.308;2022-12-10T08:37:33;98626.97;;;9.35;100.00
27840;BME280;15207;42.182;24.308;2022-12-10T08:39:59;98617.94;;;9.26;100.00
27840;BME280;15207;42.182;24.308;2022-12-10T08:42:24;98633.81;;;9.28;100.00
27840;BME280;15207;42.182;24.308;2022-12-10T08:44:50;98625.03;;;9.37;100.00
27840;BME280;15207;42.182;24.308;2022-12-10T08:47:15;98613.03;;;9.32;100.00
27840;BME280;15207;42.182;24.308;2022-12-10T08:49:41;98624.03;;;9.38;100.00
27840;BME280;15207;42.182;24.308;2022-12-10T08:52:07;98626.25;;;9.55;100.00
27840;BME280;15207;42.182;24.308;2022-12-10T08:54:32;98628.38;;;9.61;100.00
27840;BME280;15207;42.182;24.308;2022-12-10T08:56:58;98617.97;;;9.58;100.00
27840;BME280;15207;42.182;24.308;2022-12-10T08:59:23;98613.78;;;9.65;100.00
27840;BME280;15207;42.182;24.308;2022-12-10T09:01:51;98599.31;;;9.68;100.00
27840;BME280;15207;42.182;24.308;2022-12-10T09:04:16;98608.13;;;9.58;100.00
27840;BME280;15207;42.182;24.308;2022-12-10T09:06:42;98602.44;;;9.73;100.00
27840;BME280;15207;42.182;24.308;2022-12-10T09:09:07;98601.25;;;9.87;100.00
27840;BME280;15207;42.182;24.308;2022-12-10T09:11:34;98585.78;;;9.90;100.00
27840;BME280;15207;42.182;24.308;2022-12-10T09:14:01;98577.75;;;9.90;100.00
27840;BME280;15207;42.182;24.308;2022-12-10T09:16:32;98572.59;;;10.09;100.00
27840;BME280;15207;42.182;24.308;2022-12-10T09:18:58;98558.28;;;10.19;100.00
27840;BME280;15207;42.182;24.308;2022-12-10T09:21:24;98568.84;;;10.31;100.00
27840;BME280;15207;42.182;24.308;2022-12-10T09:23:50;98567.50;;;10.47;100.00
27840;BME280;15207;42.182;24.308;2022-12-10T09:26:17;98563.50;;;10.41;100.00
27840;BME280;15207;42.182;24.308;2022-12-10T09:28:45;98555.66;;;10.49;100.00
27840;BME280;15207;42.182;24.308;2022-12-10T09:31:12;98548.06;;;10.54;100.00
27840;BME280;15207;42.182;24.308;2022-12-10T09:33:38;98551.19;;;10.69;100.00
27840;BME280;15207;42.182;24.308;2022-12-10T09:36:05;98539.03;;;10.75;100.00
27840;BME280;15207;42.182;24.308;2022-12-10T09:38:34;98516.09;;;10.82;99.82
27840;BME280;15207;42.182;24.308;2022-12-10T09:43:58;98511.44;;;10.75;98.90
27840;BME280;15207;42.182;24.308;2022-12-10T09:46:31;98498.72;;;10.87;98.54
27840;BME280;15207;42.182;24.308;2022-12-10T09:51:56;98483.63;;;10.85;100.00
27840;BME280;15207;42.182;24.308;2022-12-10T09:55:05;98498.56;;;10.98;99.29
27840;BME280;15207;42.182;24.308;2022-12-10T09:57:44;98481.28;;;11.30;97.44
27840;BME280;15207;42.182;24.308;2022-12-10T10:02:37;98477.47;;;11.89;97.25
27840;BME280;15207;42.182;24.308;2022-12-10T10:05:10;98471.13;;;12.18;96.38
27840;BME280;15207;42.182;24.308;2022-12-10T10:07:48;98453.47;;;12.15;94.72
27840;BME280;15207;42.182;24.308;2022-12-10T10:10:36;98447.44;;;12.32;94.62
27840;BME280;15207;42.182;24.308;2022-12-10T10:13:36;98440.00;;;12.43;92.68
27840;BME280;15207;42.182;24.308;2022-12-10T10:18:45;98425.47;;;12.36;91.64
27840;BME280;15207;42.182;24.308;2022-12-10T10:21:23;98418.88;;;12.49;92.79
27840;BME280;15207;42.182;24.308;2022-12-10T10:23:50;98410.50;;;12.52;91.72
27840;BME280;15207;42.182;24.308;2022-12-10T10:26:15;98416.34;;;12.47;93.53
27840;BME280;15207;42.182;24.308;2022-12-10T10:28:41;98419.91;;;12.48;92.79
27840;BME280;15207;42.182;24.308;2022-12-10T10:31:23;98423.72;;;12.27;93.09
27840;BME280;15207;42.182;24.308;2022-12-10T10:33:55;98415.75;;;12.17;92.27
27840;BME280;15207;42.182;24.308;2022-12-10T10:36:33;98406.00;;;11.98;94.88
27840;BME280;15207;42.182;24.308;2022-12-10T10:39:28;98401.59;;;11.97;93.08
27840;BME280;15207;42.182;24.308;2022-12-10T10:41:56;98409.88;;;11.85;95.50
27840;BME280;15207;42.182;24.308;2022-12-10T10:44:25;98398.84;;;11.88;95.20
27840;BME280;15207;42.182;24.308;2022-12-10T10:46:53;98399.09;;;11.95;96.66
27840;BME280;15207;42.182;24.308;2022-12-10T10:49:29;98376.72;;;12.04;95.28
27840;BME280;15207;42.182;24.308;2022-12-10T10:52:13;98380.00;;;11.98;94.70
27840;BME280;15207;42.182;24.308;2022-12-10T10:54:41;98392.66;;;12.06;95.88
27840;BME280;15207;42.182;24.308;2022-12-10T10:57:35;98377.41;;;12.07;94.38
27840;BME280;15207;42.182;24.308;2022-12-10T11:00:21;98360.16;;;11.91;93.76
27840;BME280;15207;42.182;24.308;2022-12-10T11:02:50;98370.63;;;11.84;93.92
27840;BME280;15207;42.182;24.308;2022-12-10T11:05:29;98376.09;;;11.93;94.43
27840;BME280;15207;42.182;24.308;2022-12-10T11:08:04;98368.34;;;11.71;93.30
27840;BME280;15207;42.182;24.308;2022-12-10T11:10:30;98376.44;;;11.80;94.14
27840;BME280;15207;42.182;24.308;2022-12-10T11:13:03;98378.16;;;11.81;93.81
27840;BME280;15207;42.182;24.308;2022-12-10T11:17:55;98371.63;;;11.83;94.13
27840;BME280;15207;42.182;24.308;2022-12-10T11:20:31;98365.72;;;11.80;93.67
27840;BME280;15207;42.182;24.308;2022-12-10T11:22:59;98370.78;;;11.83;92.99
27840;BME280;15207;42.182;24.308;2022-12-10T11:28:27;98372.78;;;11.62;94.94
27840;BME280;15207;42.182;24.308;2022-12-10T11:31:08;98364.47;;;11.56;93.84
27840;BME280;15207;42.182;24.308;2022-12-10T11:34:10;98356.81;;;11.61;95.87
27840;BME280;15207;42.182;24.308;2022-12-10T11:37:04;98345.50;;;11.67;93.68
27840;BME280;15207;42.182;24.308;2022-12-10T11:50:39;98338.34;;;11.58;93.35
27840;BME280;15207;42.182;24.308;2022-12-10T11:58:17;98306.56;;;11.81;95.67
27840;BME280;15207;42.182;24.308;2022-12-10T12:01:06;98287.63;;;11.83;93.75
27840;BME280;15207;42.182;24.308;2022-12-10T12:03:55;98287.19;;;11.87;96.50
27840;BME280;15207;42.182;24.308;2022-12-10T12:06:33;98286.72;;;11.92;96.79
27840;BME280;15207;42.182;24.308;2022-12-10T12:11:54;98278.56;;;12.02;95.64
27840;BME280;15207;42.182;24.308;2022-12-10T12:14:51;98277.28;;;12.06;95.50
27840;BME280;15207;42.182;24.308;2022-12-10T12:19:51;98296.13;;;12.14;95.53
27840;BME280;15207;42.182;24.308;2022-12-10T12:22:31;98296.91;;;12.07;92.49
27840;BME280;15207;42.182;24.308;2022-12-10T12:27:38;98281.63;;;11.89;93.01
27840;BME280;15207;42.182;24.308;2022-12-10T12:30:15;98295.91;;;12.08;94.28
27840;BME280;15207;42.182;24.308;2022-12-10T12:35:41;98284.63;;;12.04;94.59
27840;BME280;15207;42.182;24.308;2022-12-10T12:38:32;98288.75;;;11.98;94.35
27840;BME280;15207;42.182;24.308;2022-12-10T12:41:10;98278.03;;;11.98;95.22
27840;BME280;15207;42.182;24.308;2022-12-10T12:43:51;98299.19;;;12.01;94.32
27840;BME280;15207;42.182;24.308;2022-12-10T12:46:35;98283.25;;;12.00;94.39
27840;BME280;15207;42.182;24.308;2022-12-10T12:52:33;98266.16;;;12.01;95.24
27840;BME280;15207;42.182;24.308;2022-12-10T12:55:11;98262.09;;;11.97;95.01
27840;BME280;15207;42.182;24.308;2022-12-10T12:57:57;98267.78;;;11.94;95.49
27840;BME280;15207;42.182;24.308;2022-12-10T13:00:28;98266.16;;;12.01;95.69
27840;BME280;15207;42.182;24.308;2022-12-10T13:06:12;98264.47;;;12.00;96.83
27840;BME280;15207;42.182;24.308;2022-12-10T13:11:19;98252.84;;;11.91;96.23
27840;BME280;15207;42.182;24.308;2022-12-10T13:22:11;98253.50;;;11.93;96.81
27840;BME280;15207;42.182;24.308;2022-12-10T13:29:54;98231.81;;;11.86;95.50
27840;BME280;15207;42.182;24.308;2022-12-10T13:48:46;98218.47;;;11.95;97.02
27840;BME280;15207;42.182;24.308;2022-12-10T13:51:20;98214.28;;;11.92;97.94
27840;BME280;15207;42.182;24.308;2022-12-10T13:57:03;98200.41;;;11.78;97.34
27840;BME280;15207;42.182;24.308;2022-12-10T13:59:43;98206.97;;;12.02;96.54
27840;BME280;15207;42.182;24.308;2022-12-10T14:02:42;98208.44;;;11.97;96.70
27840;BME280;15207;42.182;24.308;2022-12-10T14:07:47;98193.59;;;11.84;97.82
27840;BME280;15207;42.182;24.308;2022-12-10T14:10:18;98202.88;;;11.90;97.03
27840;BME280;15207;42.182;24.308;2022-12-10T14:12:46;98193.53;;;11.76;97.61
27840;BME280;15207;42.182;24.308;2022-12-10T14:15:19;98197.06;;;11.76;97.91
27840;BME280;15207;42.182;24.308;2022-12-10T14:17:50;98202.06;;;11.71;99.05
27840;BME280;15207;42.182;24.308;2022-12-10T14:20:20;98193.63;;;11.66;99.03
27840;BME280;15207;42.182;24.308;2022-12-10T14:22:50;98189.34;;;11.55;99.95
27840;BME280;15207;42.182;24.308;2022-12-10T14:25:20;98203.06;;;11.52;100.00
27840;BME280;15207;42.182;24.308;2022-12-10T14:27:50;98206.75;;;11.51;99.80
27840;BME280;15207;42.182;24.308;2022-12-10T14:30:22;98202.00;;;11.45;100.00
27840;BME280;15207;42.182;24.308;2022-12-10T14:32:49;98185.25;;;11.43;99.71
27840;BME280;15207;42.182;24.308;2022-12-10T14:35:20;98179.88;;;11.43;98.27
27840;BME280;15207;42.182;24.308;2022-12-10T14:37:47;98187.22;;;11.41;98.78
27840;BME280;15207;42.182;24.308;2022-12-10T14:40:23;98189.66;;;11.70;98.95
27840;BME280;15207;42.182;24.308;2022-12-10T14:42:55;98181.00;;;11.58;98.42
27840;BME280;15207;42.182;24.308;2022-12-10T14:45:28;98172.34;;;11.64;99.33
27840;BME280;15207;42.182;24.308;2022-12-10T14:48:00;98168.66;;;11.66;98.78
27840;BME280;15207;42.182;24.308;2022-12-10T14:50:28;98153.25;;;11.49;98.65
27840;BME280;15207;42.182;24.308;2022-12-10T14:52:53;98153.25;;;11.49;98.77
27840;BME280;15207;42.182;24.308;2022-12-10T14:55:21;98155.03;;;11.41;99.20
27840;BME280;15207;42.182;24.308;2022-12-10T14:57:55;98167.78;;;11.38;100.00
27840;BME280;15207;42.182;24.308;2022-12-10T15:00:22;98161.66;;;11.28;100.00
27840;BME280;15207;42.182;24.308;2022-12-10T15:02:53;98158.44;;;11.24;100.00
27840;BME280;15207;42.182;24.308;2022-12-10T15:05:21;98143.09;;;11.17;100.00
27840;BME280;15207;42.182;24.308;2022-12-10T15:07:55;98136.53;;;11.11;100.00
27840;BME280;15207;42.182;24.308;2022-12-10T15:10:25;98129.81;;;11.07;100.00
27840;BME280;15207;42.182;24.308;2022-12-10T15:12:53;98126.44;;;11.05;100.00
27840;BME280;15207;42.182;24.308;2022-12-10T15:20:29;98114.66;;;10.97;100.00